createdAt,value
2023-05-10T00:00:38.905Z,67.15
2023-05-10T00:01:38.926Z,66.68
2023-05-10T00:02:39.081Z,66.68
2023-05-10T00:03:39.024Z,66.51
2023-05-10T00:04:38.908Z,66.51
2023-05-10T00:05:38.911Z,66.70
2023-05-10T00:06:38.885Z,66.70
2023-05-10T00:07:38.900Z,66.30
2023-05-10T00:08:38.966Z,66.14
2023-05-10T00:09:38.869Z,66.14
2023-05-10T00:10:38.960Z,65.86
2023-05-10T00:11:38.904Z,66.00
2023-05-10T00:12:38.935Z,66.17
2023-05-10T00:13:38.938Z,66.14
2023-05-10T00:14:38.918Z,66.14
2023-05-10T00:15:38.912Z,66.06
2023-05-10T00:16:39.006Z,65.75
2023-05-10T00:17:38.990Z,66.09
2023-05-10T00:18:38.918Z,66.01
2023-05-10T00:19:38.888Z,66.01
2023-05-10T00:21:38.925Z,65.34
2023-05-10T00:22:38.931Z,65.05
2023-05-10T00:23:38.928Z,65.33
2023-05-10T00:24:38.938Z,66.08
2023-05-10T00:25:38.962Z,65.65
2023-05-10T00:26:38.936Z,65.75
2023-05-10T00:27:38.959Z,65.75
2023-05-10T00:28:38.916Z,65.92
2023-05-10T00:30:38.918Z,66.29
2023-05-10T00:31:38.954Z,66.29
2023-05-10T00:32:39.016Z,66.29
2023-05-10T00:33:38.982Z,66.39
2023-05-10T00:34:38.984Z,66.29
2023-05-10T00:35:38.985Z,66.30
2023-05-10T00:36:39.014Z,66.31
2023-05-10T00:37:39.042Z,66.33
2023-05-10T00:38:38.970Z,66.24
2023-05-10T00:39:38.999Z,66.58
2023-05-10T00:40:38.950Z,66.58
2023-05-10T00:41:38.949Z,66.24
2023-05-10T00:42:39.038Z,66.15
2023-05-10T00:43:39.013Z,65.84
2023-05-10T00:44:38.981Z,65.84
2023-05-10T00:45:38.971Z,65.75
2023-05-10T00:46:38.959Z,65.26
2023-05-10T00:48:39.030Z,65.06
2023-05-10T00:49:39.023Z,65.21
2023-05-10T00:50:38.979Z,65.21
2023-05-10T00:51:39.012Z,65.62
2023-05-10T00:52:39.027Z,65.90
2023-05-10T00:53:38.998Z,65.90
2023-05-10T00:54:39.017Z,65.90
2023-05-10T00:55:39.025Z,65.99
2023-05-10T00:56:39.018Z,66.05
2023-05-10T00:57:43.626Z,65.77
2023-05-10T00:58:39.012Z,65.77
2023-05-10T01:00:39.076Z,65.79
2023-05-10T01:01:39.084Z,65.79
2023-05-10T01:02:39.180Z,65.52
2023-05-10T01:03:39.108Z,65.72
2023-05-10T01:04:39.097Z,65.72
2023-05-10T01:05:39.062Z,65.45
2023-05-10T01:06:39.006Z,65.45
2023-05-10T01:08:39.132Z,65.61
2023-05-10T01:09:39.061Z,65.63
2023-05-10T01:10:39.067Z,65.79
2023-05-10T01:11:39.062Z,65.79
2023-05-10T01:12:39.189Z,65.24
2023-05-10T01:13:39.104Z,65.52
2023-05-10T01:14:39.035Z,65.52
2023-05-10T01:16:39.090Z,65.07
2023-05-10T01:17:39.101Z,65.07
2023-05-10T01:19:39.068Z,65.17
2023-05-10T01:20:39.143Z,65.32
2023-05-10T01:21:39.086Z,65.17
2023-05-10T01:22:39.109Z,65.13
2023-05-10T01:25:39.118Z,65.49
2023-05-10T01:27:39.096Z,65.60
2023-05-10T01:28:39.145Z,65.33
2023-05-10T01:29:39.114Z,65.45
2023-05-10T01:30:39.159Z,65.25
2023-05-10T01:31:39.173Z,65.07
2023-05-10T01:32:39.122Z,65.07
2023-05-10T01:33:39.121Z,64.97
2023-05-10T01:36:39.143Z,64.99
2023-05-10T01:37:39.105Z,65.05
2023-05-10T01:39:39.158Z,65.28
2023-05-10T01:40:39.104Z,65.28
2023-05-10T01:41:39.152Z,64.95
2023-05-10T01:42:39.104Z,64.95
2023-05-10T01:43:39.188Z,64.90
2023-05-10T01:44:39.201Z,65.24
2023-05-10T01:46:39.187Z,65.59
2023-05-10T01:47:39.185Z,65.93
2023-05-10T01:48:39.189Z,65.68
2023-05-10T01:49:39.182Z,65.87
2023-05-10T01:50:39.144Z,65.87
2023-05-10T01:51:39.182Z,65.64
2023-05-10T01:52:39.321Z,65.69
2023-05-10T01:53:39.193Z,65.60
2023-05-10T01:54:39.191Z,65.77
2023-05-10T01:55:39.145Z,65.67
2023-05-10T01:57:42.220Z,65.09
2023-05-10T01:58:39.222Z,65.10
2023-05-10T01:59:39.201Z,65.10
2023-05-10T02:01:39.201Z,65.05
2023-05-10T02:03:39.297Z,65.17
2023-05-10T02:04:39.193Z,65.05
2023-05-10T02:06:39.222Z,65.32
2023-05-10T02:07:39.194Z,65.32
2023-05-10T02:08:39.161Z,65.32
2023-05-10T02:10:39.212Z,65.25
2023-05-10T02:11:44.210Z,65.24
2023-05-10T02:13:39.206Z,65.70
2023-05-10T02:14:39.235Z,65.63
2023-05-10T02:15:39.251Z,66.08
2023-05-10T02:16:39.231Z,66.08
2023-05-10T02:18:39.262Z,65.67
2023-05-10T02:19:39.273Z,65.83
2023-05-10T02:20:39.260Z,65.71
2023-05-10T02:21:39.216Z,65.71
2023-05-10T02:22:39.263Z,65.62
2023-05-10T02:24:39.277Z,65.71
2023-05-10T02:25:39.260Z,65.96
2023-05-10T02:26:39.237Z,65.93
2023-05-10T02:27:39.292Z,66.01
2023-05-10T02:28:39.254Z,66.08
2023-05-10T02:29:39.213Z,66.08
2023-05-10T02:30:39.268Z,66.39
2023-05-10T02:31:39.307Z,65.70
2023-05-10T02:32:39.303Z,65.84
2023-05-10T02:33:39.264Z,65.50
2023-05-10T02:34:39.230Z,65.67
2023-05-10T02:35:39.297Z,65.67
2023-05-10T02:36:39.254Z,65.90
2023-05-10T02:37:39.272Z,65.90
2023-05-10T02:38:39.282Z,65.80
2023-05-10T02:39:39.244Z,65.75
2023-05-10T02:40:39.332Z,65.81
2023-05-10T02:41:39.308Z,65.67
2023-05-10T02:42:39.296Z,65.71
2023-05-10T02:43:39.294Z,65.96
2023-05-10T02:44:39.251Z,65.96
2023-05-10T02:45:39.356Z,66.22
2023-05-10T02:46:39.321Z,66.03
2023-05-10T02:47:39.290Z,66.03
2023-05-10T02:48:44.361Z,65.95
2023-05-10T02:49:39.332Z,65.97
2023-05-10T02:50:39.335Z,65.61
2023-05-10T02:51:39.320Z,65.79
2023-05-10T02:52:39.392Z,65.79
2023-05-10T02:53:39.332Z,66.44
2023-05-10T02:54:39.323Z,66.59
2023-05-10T02:55:39.331Z,66.79
2023-05-10T02:56:39.322Z,66.44
2023-05-10T02:57:39.298Z,66.44
2023-05-10T02:58:39.348Z,66.16
2023-05-10T02:59:39.289Z,66.16
2023-05-10T03:00:39.349Z,65.94
2023-05-10T03:01:39.355Z,66.03
2023-05-10T03:02:39.335Z,66.03
2023-05-10T03:03:39.346Z,66.00
2023-05-10T03:04:39.427Z,66.03
2023-05-10T03:05:39.345Z,66.02
2023-05-10T03:06:39.375Z,65.80
2023-05-10T03:07:39.357Z,66.03
2023-05-10T03:08:39.385Z,66.03
2023-05-10T03:09:39.379Z,66.15
2023-05-10T03:10:39.332Z,66.15
2023-05-10T03:11:39.391Z,66.05
2023-05-10T03:12:39.391Z,65.97
2023-05-10T03:13:39.363Z,65.68
2023-05-10T03:14:39.375Z,65.70
2023-05-10T03:15:39.365Z,65.70
2023-05-10T03:16:39.381Z,65.46
2023-05-10T03:17:39.427Z,65.57
2023-05-10T03:18:39.350Z,65.57
2023-05-10T03:20:39.407Z,65.84
2023-05-10T03:21:39.362Z,66.10
2023-05-10T03:22:39.568Z,66.27
2023-05-10T03:23:39.364Z,66.27
2023-05-10T03:24:39.457Z,66.57
2023-05-10T03:25:39.389Z,66.35
2023-05-10T03:26:39.396Z,66.35
2023-05-10T03:27:39.432Z,66.13
2023-05-10T03:28:39.456Z,66.11
2023-05-10T03:30:39.435Z,66.50
2023-05-10T03:31:39.412Z,66.50
2023-05-10T03:32:39.482Z,66.43
2023-05-10T03:33:39.413Z,66.58
2023-05-10T03:34:39.417Z,66.48
2023-05-10T03:35:39.433Z,66.26
2023-05-10T03:36:39.410Z,66.46
2023-05-10T03:37:39.450Z,66.38
2023-05-10T03:38:39.436Z,66.09
2023-05-10T03:39:39.426Z,66.09
2023-05-10T03:40:39.434Z,66.10
2023-05-10T03:41:39.464Z,66.11
2023-05-10T03:42:39.464Z,66.14
2023-05-10T03:43:39.479Z,66.33
2023-05-10T03:44:39.461Z,66.36
2023-05-10T03:45:39.506Z,66.53
2023-05-10T03:46:39.485Z,66.46
2023-05-10T03:47:39.495Z,66.61
2023-05-10T03:49:39.455Z,66.41
2023-05-10T03:50:39.507Z,66.47
2023-05-10T03:51:39.509Z,66.58
2023-05-10T03:52:39.463Z,66.58
2023-05-10T03:53:39.492Z,66.74
2023-05-10T03:54:39.506Z,66.80
2023-05-10T03:55:39.513Z,67.05
2023-05-10T03:56:39.506Z,67.13
2023-05-10T03:57:39.460Z,67.13
2023-05-10T03:58:39.485Z,67.47
2023-05-10T03:59:39.791Z,67.25
2023-05-10T04:00:39.515Z,67.21
2023-05-10T04:01:39.532Z,66.95
2023-05-10T04:02:39.622Z,66.95
2023-05-10T04:03:39.584Z,67.36
2023-05-10T04:04:39.523Z,66.86
2023-05-10T04:05:39.489Z,66.86
2023-05-10T04:07:39.519Z,66.69
2023-05-10T04:08:39.521Z,66.89
2023-05-10T04:09:39.541Z,66.84
2023-05-10T04:10:39.492Z,66.87
2023-05-10T04:11:39.550Z,66.75
2023-05-10T04:12:39.550Z,66.68
2023-05-10T04:15:39.532Z,66.90
2023-05-10T04:17:39.574Z,66.87
2023-05-10T04:18:39.516Z,66.87
2023-05-10T04:20:39.557Z,67.43
2023-05-10T04:21:39.553Z,67.25
2023-05-10T04:22:39.588Z,67.72
2023-05-10T04:23:39.518Z,67.72
2023-05-10T04:24:39.538Z,66.86
2023-05-10T04:25:39.575Z,66.92
2023-05-10T04:27:39.560Z,66.36
2023-05-10T04:28:39.602Z,66.48
2023-05-10T04:29:39.574Z,66.41
2023-05-10T04:30:39.610Z,66.31
2023-05-10T04:31:39.564Z,66.32
2023-05-10T04:32:39.580Z,66.42
2023-05-10T04:33:39.601Z,66.35
2023-05-10T04:34:39.578Z,66.22
2023-05-10T04:36:39.961Z,66.18
2023-05-10T04:37:39.609Z,66.23
2023-05-10T04:38:39.589Z,66.35
2023-05-10T04:39:42.014Z,66.35
2023-05-10T04:40:39.610Z,66.10
2023-05-10T04:41:39.617Z,66.25
2023-05-10T04:42:39.572Z,66.25
2023-05-10T04:43:39.682Z,65.77
2023-05-10T04:44:39.564Z,65.77
2023-05-10T04:45:39.635Z,65.99
2023-05-10T04:46:39.631Z,66.07
2023-05-10T04:47:39.661Z,65.98
2023-05-10T04:48:39.609Z,66.21
2023-05-10T04:49:39.632Z,65.71
2023-05-10T04:50:39.640Z,65.64
2023-05-10T04:51:39.629Z,65.80
2023-05-10T04:52:39.591Z,65.80
2023-05-10T04:53:39.647Z,65.83
2023-05-10T04:54:39.690Z,65.44
2023-05-10T04:55:39.598Z,65.44
2023-05-10T04:56:39.660Z,65.14
2023-05-10T04:57:39.605Z,64.75
2023-05-10T04:59:39.665Z,64.82
2023-05-10T05:00:39.681Z,64.75
2023-05-10T05:03:39.760Z,64.89
2023-05-10T05:04:39.677Z,64.47
2023-05-10T05:05:39.615Z,64.47
2023-05-10T05:06:39.688Z,64.39
2023-05-10T05:07:39.643Z,64.39
2023-05-10T05:08:39.697Z,64.71
2023-05-10T05:09:39.650Z,64.85
2023-05-10T05:10:39.673Z,64.85
2023-05-10T05:11:39.668Z,64.70
2023-05-10T05:12:39.670Z,64.42
2023-05-10T05:13:40.194Z,64.38
2023-05-10T05:14:39.707Z,64.66
2023-05-10T05:15:39.709Z,64.66
2023-05-10T05:16:39.721Z,64.76
2023-05-10T05:17:39.693Z,64.76
2023-05-10T05:18:39.677Z,63.57
2023-05-10T05:19:39.691Z,63.89
2023-05-10T05:20:39.672Z,64.36
2023-05-10T05:21:39.725Z,64.87
2023-05-10T05:22:39.739Z,65.16
2023-05-10T05:23:39.706Z,65.04
2023-05-10T05:24:39.730Z,65.44
2023-05-10T05:25:39.775Z,65.19
2023-05-10T05:26:39.707Z,65.19
2023-05-10T05:27:39.715Z,64.41
2023-05-10T05:28:39.726Z,64.54
2023-05-10T05:29:39.716Z,64.64
2023-05-10T05:30:39.705Z,64.61
2023-05-10T05:31:39.770Z,64.61
2023-05-10T05:32:39.768Z,64.48
2023-05-10T05:34:39.739Z,64.45
2023-05-10T05:35:39.747Z,64.76
2023-05-10T05:36:39.729Z,64.76
2023-05-10T05:37:39.692Z,64.55
2023-05-10T05:38:39.740Z,64.50
2023-05-10T05:39:39.722Z,64.50
2023-05-10T05:40:39.709Z,64.52
2023-05-10T05:41:39.771Z,64.93
2023-05-10T05:43:39.750Z,64.33
2023-05-10T05:44:39.737Z,64.59
2023-05-10T05:45:39.798Z,64.64
2023-05-10T05:46:39.814Z,64.40
2023-05-10T05:47:39.852Z,64.01
2023-05-10T05:49:39.738Z,64.31
2023-05-10T05:50:40.429Z,64.57
2023-05-10T05:51:39.780Z,64.65
2023-05-10T05:52:39.764Z,64.98
2023-05-10T05:53:39.813Z,64.69
2023-05-10T05:54:39.781Z,64.14
2023-05-10T05:55:39.780Z,64.38
2023-05-10T05:56:39.818Z,64.61
2023-05-10T05:57:39.762Z,64.61
2023-05-10T05:58:39.797Z,64.31
2023-05-10T06:00:39.766Z,64.11
2023-05-10T06:01:39.803Z,63.71
2023-05-10T06:02:40.047Z,63.60
2023-05-10T06:03:39.936Z,63.38
2023-05-10T06:05:39.806Z,63.86
2023-05-10T06:07:39.820Z,62.82
2023-05-10T06:09:39.822Z,63.23
2023-05-10T06:10:39.783Z,63.23
2023-05-10T06:11:39.828Z,63.56
2023-05-10T06:12:39.810Z,63.94
2023-05-10T06:13:39.793Z,63.93
2023-05-10T06:14:39.822Z,63.99
2023-05-10T06:15:39.858Z,64.10
2023-05-10T06:17:39.919Z,64.00
2023-05-10T06:18:39.858Z,63.65
2023-05-10T06:19:39.859Z,63.74
2023-05-10T06:21:39.861Z,63.74
2023-05-10T06:22:39.897Z,63.74
2023-05-10T06:23:39.863Z,63.96
2023-05-10T06:24:39.880Z,63.79
2023-05-10T06:25:39.879Z,63.80
2023-05-10T06:26:39.873Z,63.31
2023-05-10T06:27:40.651Z,63.53
2023-05-10T06:28:39.872Z,63.77
2023-05-10T06:29:39.869Z,63.97
2023-05-10T06:30:39.883Z,63.86
2023-05-10T06:31:39.844Z,63.86
2023-05-10T06:32:39.943Z,63.50
2023-05-10T06:33:39.905Z,62.56
2023-05-10T06:34:39.860Z,62.56
2023-05-10T06:35:39.941Z,62.70
2023-05-10T06:36:39.932Z,62.82
2023-05-10T06:37:39.889Z,63.06
2023-05-10T06:38:39.874Z,63.60
2023-05-10T06:39:39.898Z,63.60
2023-05-10T06:40:39.881Z,63.01
2023-05-10T06:41:39.890Z,63.01
2023-05-10T06:43:39.920Z,63.17
2023-05-10T06:44:39.913Z,63.21
2023-05-10T06:45:39.902Z,61.70
2023-05-10T06:46:39.982Z,61.89
2023-05-10T06:47:39.971Z,61.37
2023-05-10T06:48:39.942Z,60.86
2023-05-10T06:49:39.945Z,61.29
2023-05-10T06:50:39.971Z,61.70
2023-05-10T06:51:39.927Z,61.64
2023-05-10T06:52:39.903Z,61.64
2023-05-10T06:53:39.949Z,61.13
2023-05-10T06:54:39.964Z,62.00
2023-05-10T06:55:39.926Z,62.00
2023-05-10T06:56:39.927Z,61.78
2023-05-10T06:57:39.897Z,62.61
2023-05-10T06:58:40.015Z,61.98
2023-05-10T06:59:39.952Z,61.98
2023-05-10T07:00:40.007Z,62.12
2023-05-10T07:02:40.011Z,62.46
2023-05-10T07:03:39.988Z,61.69
2023-05-10T07:04:40.902Z,61.98
2023-05-10T07:05:39.972Z,61.98
2023-05-10T07:06:39.993Z,62.02
2023-05-10T07:07:39.996Z,61.57
2023-05-10T07:08:39.945Z,61.78
2023-05-10T07:09:40.000Z,61.01
2023-05-10T07:12:40.053Z,61.63
2023-05-10T07:13:39.980Z,61.63
2023-05-10T07:14:39.974Z,60.05
2023-05-10T07:15:40.001Z,60.68
2023-05-10T07:16:40.061Z,60.14
2023-05-10T07:17:41.234Z,60.70
2023-05-10T07:18:40.119Z,59.71
2023-05-10T07:19:40.030Z,60.33
2023-05-10T07:21:39.987Z,60.77
2023-05-10T07:22:40.047Z,60.42
2023-05-10T07:23:40.039Z,60.77
2023-05-10T07:24:40.038Z,60.19
2023-05-10T07:25:40.035Z,60.27
2023-05-10T07:26:39.988Z,60.27
2023-05-10T07:27:40.024Z,60.33
2023-05-10T07:28:40.060Z,60.56
2023-05-10T07:29:40.022Z,60.55
2023-05-10T07:30:40.050Z,60.72
2023-05-10T07:31:40.036Z,60.72
2023-05-10T07:32:40.080Z,60.26
2023-05-10T07:33:40.053Z,60.50
2023-05-10T07:34:40.011Z,60.24
2023-05-10T07:35:40.074Z,60.27
2023-05-10T07:36:40.079Z,60.50
2023-05-10T07:37:40.061Z,60.36
2023-05-10T07:38:41.070Z,59.49
2023-05-10T07:39:40.019Z,59.42
2023-05-10T07:40:40.058Z,59.42
2023-05-10T07:41:41.073Z,59.40
2023-05-10T07:42:40.035Z,58.72
2023-05-10T07:44:40.032Z,58.86
2023-05-10T07:45:40.110Z,59.62
2023-05-10T07:46:40.084Z,59.80
2023-05-10T07:47:40.088Z,59.80
2023-05-10T07:48:40.087Z,59.71
2023-05-10T07:49:40.096Z,59.60
2023-05-10T07:51:40.089Z,59.44
2023-05-10T07:52:40.051Z,59.39
2023-05-10T07:53:40.088Z,59.18
2023-05-10T07:54:40.112Z,59.17
2023-05-10T07:55:40.106Z,59.39
2023-05-10T07:56:40.086Z,59.25
2023-05-10T07:57:40.068Z,59.25
2023-05-10T07:58:40.097Z,59.05
2023-05-10T07:59:40.104Z,58.83
2023-05-10T08:00:40.078Z,58.83
2023-05-10T08:02:40.224Z,59.11
2023-05-10T08:03:40.191Z,59.50
2023-05-10T08:04:40.147Z,59.17
2023-05-10T08:05:40.106Z,59.17
2023-05-10T08:06:40.144Z,58.86
2023-05-10T08:07:40.074Z,58.86
2023-05-10T08:09:40.137Z,58.45
2023-05-10T08:10:40.118Z,58.45
2023-05-10T08:11:40.144Z,58.67
2023-05-10T08:12:40.148Z,59.16
2023-05-10T08:13:40.102Z,58.62
2023-05-10T08:14:40.125Z,58.62
2023-05-10T08:15:40.170Z,59.03
2023-05-10T08:16:40.191Z,58.32
2023-05-10T08:17:40.173Z,57.83
2023-05-10T08:18:40.197Z,57.83
2023-05-10T08:19:40.183Z,58.37
2023-05-10T08:20:40.192Z,58.54
2023-05-10T08:22:40.154Z,57.98
2023-05-10T08:23:40.160Z,58.13
2023-05-10T08:24:40.181Z,58.49
2023-05-10T08:25:40.196Z,58.27
2023-05-10T08:26:40.211Z,58.27
2023-05-10T08:27:40.196Z,58.22
2023-05-10T08:28:40.166Z,58.09
2023-05-10T08:29:49.690Z,57.95
2023-05-10T08:30:40.177Z,57.53
2023-05-10T08:31:40.183Z,57.53
2023-05-10T08:32:40.238Z,57.36
2023-05-10T08:33:41.517Z,57.51
2023-05-10T08:34:40.200Z,56.92
2023-05-10T08:35:40.218Z,56.73
2023-05-10T08:36:40.189Z,56.79
2023-05-10T08:37:40.197Z,57.01
2023-05-10T08:38:40.250Z,57.09
2023-05-10T08:39:40.179Z,56.10
2023-05-10T08:40:40.235Z,55.29
2023-05-10T08:42:40.196Z,55.79
2023-05-10T08:43:40.209Z,55.97
2023-05-10T08:44:40.220Z,56.50
2023-05-10T08:45:40.238Z,56.54
2023-05-10T08:46:40.239Z,56.13
2023-05-10T08:47:40.230Z,56.13
2023-05-10T08:48:40.237Z,54.93
2023-05-10T08:49:40.227Z,55.38
2023-05-10T08:50:40.212Z,55.38
2023-05-10T08:51:41.778Z,55.32
2023-05-10T08:52:40.179Z,55.66
2023-05-10T08:53:40.206Z,55.50
2023-05-10T08:54:40.256Z,55.52
2023-05-10T08:55:40.250Z,55.55
2023-05-10T08:56:40.250Z,55.35
2023-05-10T08:57:40.237Z,54.43
2023-05-10T08:58:40.258Z,54.33
2023-05-10T08:59:40.280Z,54.45
2023-05-10T09:00:40.235Z,54.03
2023-05-10T09:01:40.274Z,52.81
2023-05-10T09:02:40.254Z,52.14
2023-05-10T09:03:40.260Z,52.17
2023-05-10T09:04:40.402Z,52.17
2023-05-10T09:05:40.229Z,52.17
2023-05-10T09:06:40.277Z,52.37
2023-05-10T09:07:40.280Z,52.69
2023-05-10T09:08:40.303Z,52.79
2023-05-10T09:10:40.213Z,53.33
2023-05-10T09:11:40.233Z,53.42
2023-05-10T09:13:40.263Z,52.70
2023-05-10T09:17:40.305Z,52.65
2023-05-10T09:18:40.286Z,52.30
2023-05-10T09:19:40.300Z,52.78
2023-05-10T09:20:40.338Z,52.78
2023-05-10T09:21:40.297Z,52.08
2023-05-10T09:22:40.299Z,52.82
2023-05-10T09:23:40.272Z,52.50
2023-05-10T09:24:40.316Z,52.49
2023-05-10T09:25:40.358Z,52.52
2023-05-10T09:26:40.274Z,52.42
2023-05-10T09:28:40.367Z,52.44
2023-05-10T09:29:40.278Z,52.44
2023-05-10T09:31:40.285Z,52.62
2023-05-10T09:32:40.323Z,53.00
2023-05-10T09:33:40.326Z,53.14
2023-05-10T09:34:40.337Z,52.61
2023-05-10T09:36:40.322Z,52.44
2023-05-10T09:37:40.339Z,52.53
2023-05-10T09:38:40.341Z,52.60
2023-05-10T09:39:40.299Z,52.60
2023-05-10T09:40:40.390Z,52.31
2023-05-10T09:41:40.369Z,52.31
2023-05-10T09:42:40.393Z,51.94
2023-05-10T09:43:40.379Z,52.43
2023-05-10T09:44:40.348Z,53.23
2023-05-10T09:45:40.392Z,53.26
2023-05-10T09:46:40.383Z,52.81
2023-05-10T09:47:40.426Z,51.53
2023-05-10T09:48:40.385Z,51.55
2023-05-10T09:49:40.366Z,51.55
2023-05-10T09:50:40.400Z,50.72
2023-05-10T09:51:40.383Z,51.04
2023-05-10T09:52:40.369Z,51.04
2023-05-10T09:53:40.390Z,51.46
2023-05-10T09:54:40.336Z,51.46
2023-05-10T09:55:40.359Z,51.41
2023-05-10T09:56:40.434Z,52.42
2023-05-10T09:57:40.372Z,52.42
2023-05-10T09:58:40.418Z,52.25
2023-05-10T10:01:40.471Z,51.72
2023-05-10T10:02:40.422Z,51.69
2023-05-10T10:03:40.405Z,51.75
2023-05-10T10:04:40.495Z,52.25
2023-05-10T10:05:40.389Z,52.25
2023-05-10T10:06:40.459Z,52.30
2023-05-10T10:07:40.371Z,52.28
2023-05-10T10:08:40.423Z,52.46
2023-05-10T10:09:40.443Z,52.46
2023-05-10T10:10:40.429Z,51.54
2023-05-10T10:11:40.466Z,51.78
2023-05-10T10:12:40.461Z,51.80
2023-05-10T10:13:40.474Z,51.58
2023-05-10T10:14:40.499Z,51.15
2023-05-10T10:15:40.464Z,51.15
2023-05-10T10:16:45.948Z,51.13
2023-05-10T10:17:40.491Z,50.36
2023-05-10T10:18:40.477Z,50.69
2023-05-10T10:19:40.446Z,50.69
2023-05-10T10:20:40.422Z,50.92
2023-05-10T10:21:40.453Z,50.69
2023-05-10T10:22:40.459Z,50.99
2023-05-10T10:23:40.414Z,50.14
2023-05-10T10:24:40.478Z,50.20
2023-05-10T10:25:40.472Z,50.39
2023-05-10T10:26:40.484Z,50.96
2023-05-10T10:27:40.511Z,50.96
2023-05-10T10:28:40.455Z,50.54
2023-05-10T10:29:40.466Z,50.05
2023-05-10T10:30:40.539Z,50.05
2023-05-10T10:31:40.579Z,49.96
2023-05-10T10:32:40.568Z,50.07
2023-05-10T10:33:40.494Z,49.96
2023-05-10T10:39:40.523Z,50.08
2023-05-10T10:40:40.521Z,50.25
2023-05-10T10:41:40.466Z,50.25
2023-05-10T10:42:40.520Z,49.81
2023-05-10T10:43:40.512Z,49.00
2023-05-10T10:44:40.564Z,49.32
2023-05-10T10:45:41.932Z,49.32
2023-05-10T10:46:40.544Z,49.49
2023-05-10T10:47:40.599Z,49.33
2023-05-10T10:48:40.527Z,48.83
2023-05-10T10:49:40.529Z,48.78
2023-05-10T10:50:40.551Z,48.78
2023-05-10T10:51:40.503Z,48.07
2023-05-10T10:52:40.550Z,48.18
2023-05-10T10:53:40.552Z,48.41
2023-05-10T10:54:40.498Z,48.41
2023-05-10T10:55:40.536Z,48.17
2023-05-10T10:56:40.581Z,47.99
2023-05-10T10:57:40.557Z,47.97
2023-05-10T10:58:40.556Z,47.97
2023-05-10T10:59:40.513Z,47.97
2023-05-10T11:00:40.603Z,47.18
2023-05-10T11:01:40.548Z,47.44
2023-05-10T11:02:40.611Z,47.44
2023-05-10T11:03:40.516Z,47.42
2023-05-10T11:04:40.578Z,47.12
2023-05-10T11:05:40.590Z,47.09
2023-05-10T11:06:40.572Z,47.15
2023-05-10T11:07:40.523Z,46.68
2023-05-10T11:08:40.617Z,46.82
2023-05-10T11:09:40.597Z,46.82
2023-05-10T11:10:40.592Z,44.95
2023-05-10T11:11:40.569Z,44.95
2023-05-10T11:12:40.554Z,44.83
2023-05-10T11:13:40.576Z,44.98
2023-05-10T11:14:40.622Z,44.84
2023-05-10T11:15:40.605Z,44.84
2023-05-10T11:16:40.635Z,45.17
2023-05-10T11:17:40.659Z,45.17
2023-05-10T11:18:40.628Z,45.22
2023-05-10T11:19:40.636Z,45.58
2023-05-10T11:20:40.588Z,45.58
2023-05-10T11:21:40.627Z,44.67
2023-05-10T11:22:40.597Z,45.41
2023-05-10T11:23:40.632Z,45.41
2023-05-10T11:24:40.605Z,45.89
2023-05-10T11:25:40.586Z,46.52
2023-05-10T11:26:40.571Z,46.93
2023-05-10T11:27:40.631Z,46.64
2023-05-10T11:28:40.624Z,47.58
2023-05-10T11:29:40.627Z,47.75
2023-05-10T11:30:40.639Z,47.75
2023-05-10T11:31:40.619Z,48.31
2023-05-10T11:32:40.658Z,48.60
2023-05-10T11:33:40.619Z,48.60
2023-05-10T11:34:40.619Z,48.70
2023-05-10T11:35:43.170Z,48.02
2023-05-10T11:37:40.673Z,48.20
2023-05-10T11:38:40.731Z,48.25
2023-05-10T11:39:40.674Z,49.02
2023-05-10T11:40:40.670Z,49.02
2023-05-10T11:41:42.313Z,48.33
2023-05-10T11:42:40.679Z,47.26
2023-05-10T11:43:40.618Z,47.26
2023-05-10T11:44:40.675Z,47.15
2023-05-10T11:45:40.692Z,47.35
2023-05-10T11:46:40.666Z,47.35
2023-05-10T11:47:42.724Z,47.75
2023-05-10T11:48:40.712Z,47.82
2023-05-10T11:49:40.678Z,47.81
2023-05-10T11:50:40.673Z,47.81
2023-05-10T11:51:40.631Z,47.25
2023-05-10T11:52:40.738Z,47.41
2023-05-10T11:53:40.702Z,47.66
2023-05-10T11:55:40.676Z,47.94
2023-05-10T11:56:40.646Z,48.27
2023-05-10T11:58:40.710Z,46.84
2023-05-10T11:59:43.031Z,47.10
2023-05-10T12:00:40.719Z,46.11
2023-05-10T12:01:40.738Z,46.15
2023-05-10T12:02:40.808Z,46.44
2023-05-10T12:03:40.936Z,46.27
2023-05-10T12:04:40.723Z,46.27
2023-05-10T12:05:42.901Z,45.32
2023-05-10T12:06:40.756Z,45.42
2023-05-10T12:07:40.744Z,45.45
2023-05-10T12:09:44.191Z,45.91
2023-05-10T12:10:40.744Z,45.92
2023-05-10T12:11:43.514Z,48.86
2023-05-10T12:12:40.736Z,48.86
2023-05-10T12:13:40.767Z,49.29
2023-05-10T12:15:40.775Z,50.89
2023-05-10T12:16:40.914Z,50.89
2023-05-10T12:17:41.965Z,50.72
2023-05-10T12:18:40.806Z,51.08
2023-05-10T12:19:40.763Z,51.08
2023-05-10T12:20:40.787Z,51.40
2023-05-10T12:21:40.762Z,51.47
2023-05-10T12:22:40.754Z,51.47
2023-05-10T12:23:40.819Z,51.51
2023-05-10T12:24:40.772Z,51.84
2023-05-10T12:25:40.760Z,51.92
2023-05-10T12:26:40.772Z,52.53
2023-05-10T12:28:40.805Z,51.80
2023-05-10T12:29:42.729Z,51.80
2023-05-10T12:30:40.761Z,51.33
2023-05-10T12:31:40.838Z,51.30
2023-05-10T12:32:40.823Z,51.35
2023-05-10T12:34:40.771Z,51.09
2023-05-10T12:35:42.985Z,51.59
2023-05-10T12:36:40.807Z,52.12
2023-05-10T12:37:40.802Z,52.57
2023-05-10T12:38:40.783Z,52.46
2023-05-10T12:39:40.806Z,53.57
2023-05-10T12:40:40.881Z,54.39
2023-05-10T12:42:40.849Z,54.47
2023-05-10T12:43:40.791Z,54.91
2023-05-10T12:44:41.012Z,54.87
2023-05-10T12:45:40.873Z,53.73
2023-05-10T12:46:40.822Z,53.73
2023-05-10T12:47:43.696Z,52.84
2023-05-10T12:48:40.812Z,52.84
2023-05-10T12:49:40.832Z,53.00
2023-05-10T12:50:40.843Z,52.11
2023-05-10T12:51:40.797Z,51.94
2023-05-10T12:52:40.859Z,52.51
2023-05-10T12:53:42.565Z,50.27
2023-05-10T12:54:40.882Z,50.68
2023-05-10T12:55:40.863Z,51.06
2023-05-10T12:57:40.869Z,51.55
2023-05-10T12:58:40.861Z,51.96
2023-05-10T12:59:40.878Z,52.78
2023-05-10T13:00:40.888Z,51.31
2023-05-10T13:01:40.985Z,50.69
2023-05-10T13:02:40.940Z,50.50
2023-05-10T13:03:40.880Z,50.38
2023-05-10T13:04:40.992Z,49.96
2023-05-10T13:05:40.899Z,50.50
2023-05-10T13:06:40.843Z,50.50
2023-05-10T13:07:40.904Z,50.76
2023-05-10T13:09:40.855Z,51.89
2023-05-10T13:10:40.890Z,52.00
2023-05-10T13:11:40.888Z,52.77
2023-05-10T13:12:40.930Z,51.92
2023-05-10T13:13:40.903Z,52.48
2023-05-10T13:14:40.886Z,53.12
2023-05-10T13:15:40.861Z,53.12
2023-05-10T13:16:40.948Z,52.58
2023-05-10T13:17:40.914Z,52.44
2023-05-10T13:18:40.957Z,52.98
2023-05-10T13:19:40.881Z,52.98
2023-05-10T13:20:40.920Z,52.99
2023-05-10T13:22:40.984Z,53.83
2023-05-10T13:23:40.884Z,53.83
2023-05-10T13:24:40.894Z,54.44
2023-05-10T13:25:40.932Z,55.35
2023-05-10T13:26:40.943Z,55.93
2023-05-10T13:27:40.910Z,55.93
2023-05-10T13:28:40.934Z,57.30
2023-05-10T13:29:42.116Z,57.21
2023-05-10T13:30:40.966Z,58.70
2023-05-10T13:31:41.048Z,58.50
2023-05-10T13:32:40.977Z,59.59
2023-05-10T13:33:40.957Z,60.99
2023-05-10T13:34:40.953Z,58.43
2023-05-10T13:35:40.937Z,57.63
2023-05-10T13:36:40.976Z,57.81
2023-05-10T13:37:40.960Z,58.66
2023-05-10T13:38:40.956Z,58.41
2023-05-10T13:39:40.994Z,59.03
2023-05-10T13:40:40.937Z,59.03
2023-05-10T13:41:40.966Z,58.88
2023-05-10T13:42:40.977Z,58.32
2023-05-10T13:43:41.005Z,57.24
2023-05-10T13:44:40.993Z,57.83
2023-05-10T13:45:40.973Z,57.95
2023-05-10T13:46:41.060Z,57.09
2023-05-10T13:47:41.026Z,57.48
2023-05-10T13:48:40.953Z,57.48
2023-05-10T13:49:41.019Z,57.69
2023-05-10T13:50:41.043Z,58.24
2023-05-10T13:51:41.006Z,57.97
2023-05-10T13:52:41.003Z,58.41
2023-05-10T13:53:41.034Z,58.77
2023-05-10T13:54:41.003Z,58.71
2023-05-10T13:56:41.024Z,58.17
2023-05-10T13:57:41.043Z,57.73
2023-05-10T13:58:40.989Z,57.73
2023-05-10T13:59:40.988Z,58.02
2023-05-10T14:00:41.040Z,58.12
2023-05-10T14:01:41.057Z,58.12
2023-05-10T14:02:41.093Z,57.77
2023-05-10T14:03:41.124Z,58.44
2023-05-10T14:04:41.067Z,59.36
2023-05-10T14:05:41.031Z,58.94
2023-05-10T14:06:41.016Z,59.90
2023-05-10T14:07:41.023Z,60.03
2023-05-10T14:08:41.048Z,60.37
2023-05-10T14:09:41.026Z,57.77
2023-05-10T14:10:41.011Z,57.77
2023-05-10T14:11:41.058Z,59.21
2023-05-10T14:12:41.068Z,58.81
2023-05-10T14:13:41.058Z,58.99
2023-05-10T14:14:41.012Z,58.99